createdAt,value
2023-04-09T00:02:12.087Z,95.03
2023-04-09T00:05:03.398Z,95.01
2023-04-09T00:07:51.154Z,95.72
2023-04-09T00:10:39.238Z,95.51
2023-04-09T00:13:38.371Z,95.69
2023-04-09T00:16:27.545Z,95.61
2023-04-09T00:19:15.708Z,95.84
2023-04-09T00:22:03.276Z,95.87
2023-04-09T00:24:51.377Z,96.22
2023-04-09T00:27:39.344Z,96.33
2023-04-09T00:30:30.998Z,96.68
2023-04-09T00:33:18.671Z,96.93
2023-04-09T00:36:06.979Z,97.48
2023-04-09T00:38:55.148Z,97.42
2023-04-09T00:41:42.917Z,97.31
2023-04-09T00:44:31.626Z,97.42
2023-04-09T00:47:19.788Z,97.16
2023-04-09T00:50:09.506Z,97.47
2023-04-09T00:52:57.613Z,97.20
2023-04-09T00:55:46.161Z,97.07
2023-04-09T00:58:34.236Z,97.86
2023-04-09T01:01:21.892Z,97.83
2023-04-09T01:04:10.236Z,97.63
2023-04-09T01:07:10.460Z,97.00
2023-04-09T01:10:08.636Z,96.40
2023-04-09T01:13:14.888Z,96.38
2023-04-09T01:16:03.992Z,96.03
2023-04-09T01:19:09.033Z,96.19
2023-04-09T01:21:57.962Z,95.88
2023-04-09T01:25:29.459Z,95.83
2023-04-09T01:28:42.067Z,96.01
2023-04-09T01:31:38.459Z,95.31
2023-04-09T01:34:28.803Z,95.09
2023-04-09T01:37:17.855Z,94.81
2023-04-09T01:40:09.481Z,95.05
2023-04-09T01:42:58.475Z,94.92
2023-04-09T01:45:48.207Z,94.92
2023-04-09T01:48:37.418Z,94.98
2023-04-09T01:51:27.433Z,95.06
2023-04-09T01:54:17.103Z,95.21
2023-04-09T01:57:04.789Z,95.36
2023-04-09T01:59:52.501Z,95.54
2023-04-09T02:02:55.900Z,96.24
2023-04-09T02:05:53.413Z,96.74
2023-04-09T02:08:47.865Z,96.88
2023-04-09T02:11:40.679Z,96.84
2023-04-09T02:14:29.431Z,96.93
2023-04-09T02:17:18.833Z,97.11
2023-04-09T02:20:07.639Z,96.98
2023-04-09T02:22:55.682Z,97.05
2023-04-09T02:25:44.473Z,97.18
2023-04-09T02:28:31.975Z,97.21
2023-04-09T02:31:19.633Z,97.43
2023-04-09T02:34:07.700Z,97.41
2023-04-09T02:36:55.820Z,97.50
2023-04-09T02:39:43.601Z,97.93
2023-04-09T02:42:31.385Z,98.10
2023-04-09T02:45:20.421Z,98.20
2023-04-09T02:48:08.523Z,98.31
2023-04-09T02:50:57.277Z,98.05
2023-04-09T02:53:45.786Z,98.56
2023-04-09T02:56:33.511Z,98.41
2023-04-09T02:59:21.290Z,98.09
2023-04-09T03:02:09.100Z,98.31
2023-04-09T03:04:56.952Z,98.15
2023-04-09T03:07:47.416Z,98.17
2023-04-09T03:10:35.529Z,98.16
2023-04-09T03:13:23.352Z,97.60
2023-04-09T03:16:11.213Z,97.44
2023-04-09T03:19:00.342Z,97.16
2023-04-09T03:21:49.479Z,97.26
2023-04-09T03:24:37.642Z,96.98
2023-04-09T03:27:26.679Z,97.06
2023-04-09T03:30:15.727Z,96.72
2023-04-09T03:33:05.665Z,97.10
2023-04-09T03:35:57.005Z,97.08
2023-04-09T03:38:53.781Z,96.79
2023-04-09T03:42:02.618Z,96.41
2023-04-09T03:44:56.794Z,95.98
2023-04-09T03:47:54.801Z,95.60
2023-04-09T03:50:44.435Z,95.46
2023-04-09T03:53:33.453Z,94.99
2023-04-09T03:56:24.254Z,94.88
2023-04-09T03:59:12.126Z,94.55
2023-04-09T04:02:02.526Z,94.25
2023-04-09T04:04:51.356Z,94.52
2023-04-09T04:07:39.654Z,94.51
2023-04-09T04:10:34.190Z,94.43
2023-04-09T04:13:22.401Z,93.67
2023-04-09T04:16:15.641Z,93.53
2023-04-09T04:19:03.734Z,93.45
2023-04-09T04:21:52.341Z,93.47
2023-04-09T04:24:40.500Z,93.00
2023-04-09T04:27:28.228Z,92.49
2023-04-09T04:30:15.992Z,92.23
2023-04-09T04:33:16.563Z,92.52
2023-04-09T04:36:17.471Z,92.58
2023-04-09T04:39:11.505Z,91.74
2023-04-09T04:42:19.145Z,91.88
2023-04-09T04:45:08.575Z,90.80
2023-04-09T04:48:02.214Z,90.66
2023-04-09T04:51:02.740Z,90.40
2023-04-09T04:53:56.641Z,90.49
2023-04-09T04:56:45.768Z,89.96
2023-04-09T04:59:51.884Z,88.06
2023-04-09T05:02:41.716Z,88.40
2023-04-09T05:05:55.570Z,88.17
2023-04-09T05:08:43.447Z,87.63
2023-04-09T05:11:31.449Z,87.59
2023-04-09T05:14:21.578Z,87.51
2023-04-09T05:17:10.413Z,87.88
2023-04-09T05:20:07.021Z,87.90
2023-04-09T05:23:03.639Z,87.81
2023-04-09T05:25:55.389Z,87.79
2023-04-09T05:28:50.144Z,88.05
2023-04-09T05:31:40.620Z,88.09
2023-04-09T05:34:33.818Z,88.32
2023-04-09T05:37:22.450Z,88.05
2023-04-09T05:40:14.972Z,87.51
2023-04-09T05:43:04.813Z,87.44
2023-04-09T05:46:04.580Z,87.55
2023-04-09T05:48:53.298Z,87.00
2023-04-09T05:51:43.331Z,86.72
2023-04-09T05:54:31.873Z,86.85
2023-04-09T05:57:19.777Z,86.31
2023-04-09T06:00:15.754Z,85.67
2023-04-09T06:03:08.799Z,85.32
2023-04-09T06:05:58.788Z,84.96
2023-04-09T06:08:49.049Z,84.69
2023-04-09T06:11:43.149Z,84.53
2023-04-09T06:14:33.304Z,83.73
2023-04-09T06:17:21.157Z,83.38
2023-04-09T06:20:09.685Z,82.49
2023-04-09T06:22:57.534Z,81.73
2023-04-09T06:25:46.053Z,79.62
2023-04-09T06:28:36.651Z,75.49
2023-04-09T06:31:24.776Z,67.61
2023-04-09T06:34:12.652Z,62.03
2023-04-09T06:37:00.152Z,56.15
2023-04-09T06:42:42.061Z,47.31
2023-04-09T06:45:40.966Z,44.33
2023-04-09T06:48:29.054Z,41.12
2023-04-09T06:51:16.637Z,38.74
2023-04-09T06:54:04.299Z,38.22
2023-04-09T06:56:52.560Z,35.72
2023-04-09T06:59:43.560Z,35.28
2023-04-09T07:02:31.959Z,36.34
2023-04-09T07:05:22.937Z,38.14
2023-04-09T07:08:13.294Z,39.66
2023-04-09T07:11:01.193Z,41.10
2023-04-09T07:13:49.177Z,41.97
2023-04-09T07:16:37.795Z,42.64
2023-04-09T07:19:27.009Z,43.30
2023-04-09T07:22:14.901Z,43.53
2023-04-09T07:25:02.979Z,44.05
2023-04-09T07:27:51.125Z,44.40
2023-04-09T07:30:41.361Z,44.80
2023-04-09T07:33:32.073Z,44.45
2023-04-09T07:36:19.888Z,45.21
2023-04-09T07:39:07.805Z,45.16
2023-04-09T07:41:57.615Z,45.33
2023-04-09T07:44:45.619Z,45.59
2023-04-09T07:47:34.648Z,45.56
2023-04-09T07:50:24.088Z,45.70
2023-04-09T07:53:14.553Z,45.82
2023-04-09T07:56:03.158Z,45.25
2023-04-09T07:58:51.501Z,45.10
2023-04-09T08:01:39.919Z,44.66
2023-04-09T08:04:28.440Z,44.56
2023-04-09T08:07:16.203Z,44.74
2023-04-09T08:10:06.597Z,44.33
2023-04-09T08:12:54.496Z,43.87
2023-04-09T08:15:43.466Z,43.02
2023-04-09T08:18:31.374Z,42.38
2023-04-09T08:21:19.929Z,41.70
2023-04-09T08:24:07.696Z,41.33
2023-04-09T08:26:57.399Z,41.17
2023-04-09T08:29:45.769Z,41.11
2023-04-09T08:32:35.752Z,40.72
2023-04-09T08:35:23.524Z,40.15
2023-04-09T08:38:12.273Z,39.58
2023-04-09T08:41:00.215Z,39.52
2023-04-09T08:43:57.700Z,39.10
2023-04-09T08:46:47.927Z,38.78
2023-04-09T08:49:36.298Z,39.08
2023-04-09T08:52:34.881Z,38.37
2023-04-09T08:55:23.138Z,37.98
2023-04-09T08:58:12.652Z,37.77
2023-04-09T09:01:01.848Z,37.51
2023-04-09T09:04:04.777Z,35.99
2023-04-09T09:06:56.586Z,35.11
2023-04-09T09:09:59.507Z,34.47
2023-04-09T09:12:47.542Z,34.51
2023-04-09T09:15:37.041Z,34.70
2023-04-09T09:18:42.919Z,34.57
2023-04-09T09:21:33.361Z,34.49
2023-04-09T09:24:23.844Z,34.29
2023-04-09T09:27:12.442Z,33.98
2023-04-09T09:30:01.706Z,34.07
2023-04-09T09:33:13.075Z,33.37
2023-04-09T09:36:04.015Z,33.03
2023-04-09T09:38:58.080Z,31.45
2023-04-09T09:41:48.846Z,30.07
2023-04-09T09:44:36.900Z,29.21
2023-04-09T09:47:28.077Z,28.32
2023-04-09T09:50:16.182Z,27.56
2023-04-09T09:53:08.527Z,27.21
2023-04-09T09:56:00.533Z,26.93
2023-04-09T09:59:08.064Z,27.42
2023-04-09T10:02:21.489Z,28.07
2023-04-09T10:05:11.445Z,28.13
2023-04-09T10:08:01.869Z,28.02
2023-04-09T10:10:52.366Z,27.80
2023-04-09T10:14:06.646Z,28.11
2023-04-09T10:16:54.694Z,26.90
2023-04-09T10:19:49.595Z,26.74
2023-04-09T10:22:38.015Z,26.71
2023-04-09T10:25:26.512Z,26.36
2023-04-09T10:28:18.908Z,27.15
2023-04-09T10:31:07.850Z,27.70
2023-04-09T10:34:04.355Z,27.67
2023-04-09T10:36:56.371Z,27.69
2023-04-09T10:39:49.225Z,27.96
2023-04-09T10:42:41.133Z,27.89
2023-04-09T10:45:42.074Z,28.22
2023-04-09T10:48:33.364Z,27.55
2023-04-09T10:51:26.595Z,27.60
2023-04-09T10:54:33.393Z,28.12
2023-04-09T10:57:22.222Z,28.32
2023-04-09T11:00:11.028Z,28.08
2023-04-09T11:03:29.100Z,27.48
2023-04-09T11:06:21.206Z,26.26
2023-04-09T11:09:09.394Z,25.58
2023-04-09T11:11:57.917Z,25.31
2023-04-09T11:14:47.148Z,25.71
2023-04-09T11:17:38.348Z,26.08
2023-04-09T11:20:28.556Z,26.90
2023-04-09T11:23:18.010Z,26.76
2023-04-09T11:26:06.296Z,27.32
2023-04-09T11:28:58.179Z,27.36
2023-04-09T11:31:46.418Z,26.71
2023-04-09T11:34:34.515Z,26.46
2023-04-09T11:37:22.274Z,26.09
2023-04-09T11:40:22.599Z,25.71
2023-04-09T11:43:10.422Z,25.69
2023-04-09T11:45:59.290Z,25.57
2023-04-09T11:48:47.489Z,26.01
2023-04-09T11:51:35.832Z,26.65
2023-04-09T11:54:23.360Z,27.97
2023-04-09T11:57:11.206Z,29.17
2023-04-09T11:59:58.964Z,29.52
2023-04-09T12:02:49.447Z,29.51
2023-04-09T12:05:39.101Z,29.91
2023-04-09T12:08:28.760Z,29.84
2023-04-09T12:11:16.601Z,30.10
2023-04-09T12:14:07.880Z,30.82
2023-04-09T12:16:56.133Z,31.78
2023-04-09T12:19:43.983Z,32.48
2023-04-09T12:22:31.885Z,33.29
2023-04-09T12:25:21.199Z,34.21
2023-04-09T12:28:12.020Z,34.89
2023-04-09T12:31:00.135Z,35.54
2023-04-09T12:33:47.930Z,35.89
2023-04-09T12:36:36.172Z,35.03
2023-04-09T12:39:24.380Z,35.33
2023-04-09T12:42:11.913Z,35.81
2023-04-09T12:44:59.889Z,36.35
2023-04-09T12:47:50.538Z,36.44
2023-04-09T12:50:38.824Z,35.69
2023-04-09T12:53:26.813Z,36.25
2023-04-09T12:56:15.139Z,36.32
2023-04-09T12:59:02.721Z,36.38
2023-04-09T13:01:53.072Z,36.76
2023-04-09T13:04:41.823Z,36.89
2023-04-09T13:07:29.724Z,37.06
2023-04-09T13:10:17.627Z,36.96
2023-04-09T13:13:07.260Z,36.63
2023-04-09T13:15:54.807Z,36.80
2023-04-09T13:18:42.438Z,36.87
2023-04-09T13:21:31.104Z,37.02
2023-04-09T13:24:18.717Z,37.06
2023-04-09T13:27:09.696Z,38.21
2023-04-09T13:29:57.663Z,39.12
2023-04-09T13:32:45.983Z,40.02
2023-04-09T13:35:33.636Z,40.31
2023-04-09T13:38:22.546Z,40.74
2023-04-09T13:41:10.933Z,41.38
2023-04-09T13:44:02.769Z,41.41
2023-04-09T13:46:51.017Z,41.92
2023-04-09T13:49:43.437Z,42.26
2023-04-09T13:52:32.323Z,42.73
2023-04-09T13:55:20.712Z,43.10
2023-04-09T13:58:08.283Z,43.40
2023-04-09T14:00:56.398Z,43.02
2023-04-09T14:03:44.241Z,42.85
2023-04-09T14:06:32.509Z,43.25
2023-04-09T14:09:20.417Z,43.59
2023-04-09T14:12:08.239Z,44.13
2023-04-09T14:14:56.428Z,44.15
2023-04-09T14:17:45.518Z,44.02
2023-04-09T14:20:34.787Z,43.69
2023-04-09T14:23:23.591Z,43.76
2023-04-09T14:26:11.620Z,43.88
2023-04-09T14:28:59.557Z,43.96
2023-04-09T14:31:47.912Z,44.00
2023-04-09T14:34:35.939Z,44.14
2023-04-09T14:37:26.077Z,43.83
2023-04-09T14:40:14.070Z,44.00
2023-04-09T14:43:06.478Z,44.19
2023-04-09T14:45:55.141Z,44.32
2023-04-09T14:48:45.931Z,43.92
2023-04-09T14:51:33.874Z,44.21
2023-04-09T14:54:21.671Z,43.81
2023-04-09T14:57:09.547Z,44.30
2023-04-09T14:59:57.395Z,44.35
2023-04-09T15:02:48.054Z,44.93
2023-04-09T15:05:36.600Z,44.98
2023-04-09T15:08:24.374Z,44.95
2023-04-09T15:11:22.707Z,45.38
2023-04-09T15:14:10.418Z,46.02
2023-04-09T15:16:59.374Z,46.24
2023-04-09T15:19:47.209Z,46.54
2023-04-09T15:22:35.005Z,47.29
2023-04-09T15:25:24.097Z,47.38
2023-04-09T15:28:12.021Z,47.40
2023-04-09T15:30:59.980Z,47.72
2023-04-09T15:33:48.371Z,48.55
2023-04-09T15:36:36.138Z,48.96
2023-04-09T15:39:28.641Z,48.67
2023-04-09T15:42:20.436Z,49.10
2023-04-09T15:45:08.469Z,49.87
2023-04-09T15:47:56.598Z,50.60
2023-04-09T15:50:44.233Z,51.20
2023-04-09T15:53:31.973Z,51.46
2023-04-09T15:56:21.001Z,52.65
2023-04-09T15:59:09.018Z,52.55
2023-04-09T16:01:57.163Z,52.97
2023-04-09T16:04:45.455Z,53.36
2023-04-09T16:07:33.942Z,54.13
2023-04-09T16:10:21.988Z,54.41
2023-04-09T16:13:10.080Z,55.09
2023-04-09T16:15:58.226Z,55.36
2023-04-09T16:18:46.598Z,55.99
2023-04-09T16:21:34.815Z,55.86
2023-04-09T16:24:24.175Z,55.76
2023-04-09T16:27:14.035Z,56.41
2023-04-09T16:30:02.493Z,56.99
2023-04-09T16:32:50.493Z,57.23
2023-04-09T16:35:39.669Z,58.04
2023-04-09T16:38:31.089Z,58.84
2023-04-09T16:41:21.935Z,59.81
2023-04-09T16:44:10.406Z,60.87
2023-04-09T16:46:58.427Z,61.38
2023-04-09T16:49:46.316Z,62.10
2023-04-09T16:52:36.198Z,62.73
2023-04-09T16:55:24.408Z,63.51
2023-04-09T16:58:12.944Z,63.87
2023-04-09T17:01:02.295Z,64.32
2023-04-09T17:03:50.732Z,64.70
2023-04-09T17:06:38.582Z,65.12
2023-04-09T17:09:27.124Z,65.87
2023-04-09T17:12:15.599Z,65.98
2023-04-09T17:15:03.601Z,65.89
2023-04-09T17:17:53.880Z,65.96
2023-04-09T17:20:42.396Z,65.92
2023-04-09T17:23:30.107Z,66.38
2023-04-09T17:26:19.196Z,66.79
2023-04-09T17:29:06.918Z,67.05
2023-04-09T17:31:55.418Z,66.95
2023-04-09T17:34:47.406Z,67.63
2023-04-09T17:37:39.754Z,68.05
2023-04-09T17:40:28.499Z,68.96
2023-04-09T17:43:17.695Z,69.16
2023-04-09T17:46:07.653Z,69.98
2023-04-09T17:48:55.815Z,70.67
2023-04-09T17:51:46.192Z,70.71
2023-04-09T17:54:35.021Z,71.10
2023-04-09T17:57:23.331Z,71.14
2023-04-09T18:00:12.057Z,71.46
2023-04-09T18:03:12.336Z,71.92
2023-04-09T18:06:01.046Z,72.56
2023-04-09T18:08:52.291Z,72.84
2023-04-09T18:11:40.441Z,73.39
2023-04-09T18:14:31.318Z,73.78
2023-04-09T18:17:19.626Z,74.04
2023-04-09T18:20:09.740Z,74.24
2023-04-09T18:22:58.588Z,73.86
2023-04-09T18:25:49.962Z,74.34
2023-04-09T18:28:42.139Z,74.55
2023-04-09T18:31:29.611Z,74.56
2023-04-09T18:34:17.641Z,74.80
2023-04-09T18:37:06.218Z,75.16
2023-04-09T18:39:54.177Z,75.47
2023-04-09T18:42:43.016Z,75.89
2023-04-09T18:45:31.232Z,76.68
2023-04-09T18:48:23.353Z,76.55
2023-04-09T18:51:11.565Z,76.56
2023-04-09T18:54:00.841Z,76.74
2023-04-09T18:56:50.289Z,77.02
2023-04-09T18:59:40.095Z,77.34
2023-04-09T19:02:31.155Z,77.59
2023-04-09T19:05:19.150Z,77.86
2023-04-09T19:08:09.763Z,78.24
2023-04-09T19:10:58.615Z,78.52
2023-04-09T19:13:46.477Z,79.01
2023-04-09T19:16:34.257Z,79.26
2023-04-09T19:19:23.531Z,79.74
2023-04-09T19:22:11.797Z,80.34
2023-04-09T19:24:59.535Z,80.60
2023-04-09T19:27:47.339Z,81.01
2023-04-09T19:30:34.886Z,81.17
2023-04-09T19:33:25.556Z,81.19
2023-04-09T19:36:14.202Z,81.35
2023-04-09T19:39:03.595Z,82.07
2023-04-09T19:41:52.479Z,82.10
2023-04-09T19:44:40.271Z,82.30
2023-04-09T19:47:32.369Z,82.97
2023-04-09T19:50:20.045Z,82.95
2023-04-09T19:53:10.323Z,83.19
2023-04-09T19:55:59.414Z,83.37
2023-04-09T19:58:48.168Z,83.44
2023-04-09T20:01:36.246Z,83.73
2023-04-09T20:04:24.830Z,83.61
2023-04-09T20:07:12.426Z,84.18
2023-04-09T20:10:01.014Z,84.50
2023-04-09T20:12:51.549Z,84.66
2023-04-09T20:15:39.400Z,84.78
2023-04-09T20:18:27.862Z,85.61
2023-04-09T20:21:16.810Z,85.46
2023-04-09T20:24:04.997Z,85.72
2023-04-09T20:26:52.617Z,85.84
2023-04-09T20:29:40.667Z,86.23
2023-04-09T20:32:28.458Z,86.19
2023-04-09T20:35:17.350Z,86.52
2023-04-09T20:38:05.409Z,86.65
2023-04-09T20:40:53.283Z,86.68
2023-04-09T20:43:41.697Z,86.88
2023-04-09T20:46:29.814Z,87.10
2023-04-09T20:49:17.753Z,87.18
2023-04-09T20:52:09.349Z,87.45
2023-04-09T20:54:58.798Z,88.08
2023-04-09T20:57:49.322Z,88.19
2023-04-09T21:00:37.128Z,88.17
2023-04-09T21:03:27.883Z,88.41
2023-04-09T21:06:21.045Z,88.81
2023-04-09T21:09:10.613Z,88.84
2023-04-09T21:11:58.377Z,89.04
2023-04-09T21:14:46.285Z,89.31
2023-04-09T21:17:34.214Z,89.27
2023-04-09T21:20:22.308Z,89.57
2023-04-09T21:23:10.046Z,89.59
2023-04-09T21:25:57.701Z,89.65
2023-04-09T21:28:50.575Z,90.07
2023-04-09T21:31:39.185Z,90.12
2023-04-09T21:34:30.418Z,90.16
2023-04-09T21:37:18.591Z,90.35
2023-04-09T21:40:08.535Z,90.46
2023-04-09T21:42:57.162Z,90.37
2023-04-09T21:45:45.216Z,90.10
2023-04-09T21:48:38.892Z,89.79
2023-04-09T21:51:29.417Z,90.30
2023-04-09T21:54:18.075Z,90.20
2023-04-09T21:57:07.132Z,90.40
2023-04-09T21:59:55.468Z,90.76
2023-04-09T22:02:43.082Z,90.67
2023-04-09T22:05:34.476Z,91.05
2023-04-09T22:08:25.591Z,91.02
2023-04-09T22:11:14.941Z,91.30
2023-04-09T22:14:04.015Z,91.91
2023-04-09T22:16:52.105Z,92.34
2023-04-09T22:19:39.607Z,92.84
2023-04-09T22:22:27.388Z,92.81
2023-04-09T22:25:15.124Z,92.72
2023-04-09T22:28:05.768Z,92.74
2023-04-09T22:30:53.640Z,92.94
2023-04-09T22:33:42.723Z,92.82
2023-04-09T22:36:31.102Z,93.06
2023-04-09T22:39:19.256Z,93.20
2023-04-09T22:42:06.939Z,93.41
2023-04-09T22:44:54.542Z,93.45
2023-04-09T22:47:42.656Z,93.66
2023-04-09T22:50:30.459Z,93.73
2023-04-09T22:53:19.409Z,93.84
2023-04-09T22:56:08.315Z,93.83
2023-04-09T22:58:56.407Z,94.02
2023-04-09T23:01:44.560Z,93.76
2023-04-09T23:04:32.204Z,93.82
2023-04-09T23:07:19.940Z,94.10
2023-04-09T23:10:08.517Z,94.39
2023-04-09T23:12:57.019Z,94.54
2023-04-09T23:15:44.951Z,94.30
2023-04-09T23:18:34.656Z,94.72
2023-04-09T23:21:22.050Z,94.74
2023-04-09T23:24:09.829Z,94.80
2023-04-09T23:26:58.068Z,94.71
2023-04-09T23:29:46.847Z,95.03
2023-04-09T23:32:35.228Z,94.95
2023-04-09T23:35:23.548Z,95.40
2023-04-09T23:38:11.430Z,95.37
2023-04-09T23:40:59.372Z,95.50
2023-04-09T23:43:47.290Z,95.64
2023-04-09T23:46:35.162Z,95.57
2023-04-09T23:49:23.053Z,95.56
2023-04-09T23:52:10.842Z,95.72
2023-04-09T23:55:00.149Z,95.55
2023-04-09T23:57:47.988Z,95.71
